Observation data for Sundown on 05/24/2020      Previous  Date  Next       Current Mesonet Observations  Soil Data  Daily Summary Page  Observations in Plain Language
KSDS 240500Z 15011KT 18/11 A2987 RMK A01 T01810114  RH  067%=      5-min Rain = 0
KSDS 240505Z 16010KT 18/12 A2987 RMK A01 T01800115  RH  068%=      5-min Rain = 0
KSDS 240510Z 15011KT 18/12 A2987 RMK A01 T01790115  RH  069%=      5-min Rain = 0
KSDS 240515Z 16010KT 18/12 A2987 RMK A01 T01780116  RH  069%=      5-min Rain = 0
KSDS 240520Z 16010KT 18/12 A2987 RMK A01 T01780116  RH  069%=      5-min Rain = 0
KSDS 240525Z 16010KT 18/12 A2987 RMK A01 T01780116  RH  069%=      5-min Rain = 0
KSDS 240530Z 16011KT 18/12 A2987 RMK A01 T01780116  RH  069%=      5-min Rain = 0
KSDS 240535Z 16010KT 18/12 A2987 RMK A01 T01780115  RH  069%=      5-min Rain = 0
KSDS 240540Z 17010KT 18/11 A2987 RMK A01 T01780113  RH  068%=      5-min Rain = 0
KSDS 240545Z 17011KT 18/11 A2987 RMK A01 T01800111  RH  066%=      5-min Rain = 0
KSDS 240550Z 16012KT 18/11 A2987 RMK A01 T01820108  RH  064%=      5-min Rain = 0
KSDS 240555Z 17013KT 19/11 A2987 RMK A01 T01860106  RH  062%=      5-min Rain = 0
KSDS 240600Z 17013KT 19/10 A2987 RMK A01 T01890104  RH  060%=      5-min Rain = 0
KSDS 240605Z 16011KT 19/10 A2987 RMK A01 T01880103  RH  060%=      5-min Rain = 0
KSDS 240610Z 16012KT 19/10 A2988 RMK A01 T01870103  RH  060%=      5-min Rain = 0
KSDS 240615Z 16012G17KT 19/10 A2988 RMK A01 T01860103  RH  060%=      5-min Rain = 0
KSDS 240620Z 16012KT 19/10 A2988 RMK A01 T01860104  RH  061%=      5-min Rain = 0
KSDS 240625Z 16012G17KT 19/11 A2988 RMK A01 T01850105  RH  062%=      5-min Rain = 0
KSDS 240630Z 16011KT 18/11 A2988 RMK A01 T01830106  RH  063%=      5-min Rain = 0
KSDS 240635Z 16012G17KT 18/11 A2988 RMK A01 T01810107  RH  064%=      5-min Rain = 0
KSDS 240640Z 16011KT 18/11 A2987 RMK A01 T01790108  RH  066%=      5-min Rain = 0
KSDS 240645Z 15012G17KT 18/11 A2987 RMK A01 T01780109  RH  066%=      5-min Rain = 0
KSDS 240650Z 15011KT 18/11 A2987 RMK A01 T01770111  RH  068%=      5-min Rain = 0
KSDS 240655Z 15012KT 18/11 A2987 RMK A01 T01750113  RH  070%=      5-min Rain = 0
KSDS 240700Z 15013KT 18/12 A2987 RMK A01 T01750115  RH  071%=      5-min Rain = 0
KSDS 240705Z 15012G17KT 17/12 A2987 RMK A01 T01740117  RH  072%=      5-min Rain = 0
KSDS 240710Z 15012KT 17/12 A2987 RMK A01 T01740117  RH  072%=      5-min Rain = 0
KSDS 240715Z 15012KT 17/12 A2987 RMK A01 T01730117  RH  072%=      5-min Rain = 0
KSDS 240720Z 15013KT 17/12 A2987 RMK A01 T01730116  RH  072%=      5-min Rain = 0
KSDS 240725Z 15013KT 17/12 A2987 RMK A01 T01730116  RH  072%=      5-min Rain = 0
KSDS 240730Z 15013G18KT 17/12 A2987 RMK A01 T01730115  RH  072%=      5-min Rain = 0
KSDS 240735Z 15012KT 17/12 A2987 RMK A01 T01720115  RH  072%=      5-min Rain = 0
KSDS 240740Z 15011KT 17/11 A2987 RMK A01 T01700114  RH  072%=      5-min Rain = 0
KSDS 240745Z 15012KT 17/11 A2987 RMK A01 T01690113  RH  072%=      5-min Rain = 0
KSDS 240750Z 15013G18KT 17/11 A2987 RMK A01 T01700112  RH  071%=      5-min Rain = 0
KSDS 240755Z 15012G18KT 17/11 A2987 RMK A01 T01690111  RH  071%=      5-min Rain = 0
KSDS 240800Z 15012KT 17/11 A2986 RMK A01 T01690110  RH  071%=      5-min Rain = 0
KSDS 240805Z 15012KT 17/11 A2986 RMK A01 T01680109  RH  071%=      5-min Rain = 0
KSDS 240810Z 15014KT 17/11 A2986 RMK A01 T01670109  RH  071%=      5-min Rain = 0
KSDS 240815Z 14012KT 17/11 A2986 RMK A01 T01660108  RH  071%=      5-min Rain = 0
KSDS 240820Z 14012KT 16/11 A2987 RMK A01 T01640108  RH  072%=      5-min Rain = 0
KSDS 240825Z 15011G16KT 16/11 A2986 RMK A01 T01630108  RH  072%=      5-min Rain = 0
KSDS 240830Z 15011KT 16/11 A2986 RMK A01 T01620108  RH  073%=      5-min Rain = 0
KSDS 240835Z 15011KT 16/11 A2987 RMK A01 T01610107  RH  073%=      5-min Rain = 0
KSDS 240840Z 15010KT 16/11 A2987 RMK A01 T01600107  RH  073%=      5-min Rain = 0
KSDS 240845Z 15010KT 16/11 A2987 RMK A01 T01590107  RH  074%=      5-min Rain = 0
KSDS 240850Z 14011KT 16/11 A2987 RMK A01 T01590107  RH  074%=      5-min Rain = 0
KSDS 240855Z 15011KT 16/11 A2987 RMK A01 T01580107  RH  074%=      5-min Rain = 0
KSDS 240900Z 15011KT 16/11 A2987 RMK A01 T01580107  RH  074%=      5-min Rain = 0
KSDS 240905Z 15010KT 16/11 A2986 RMK A01 T01560106  RH  075%=      5-min Rain = 0
KSDS 240910Z 15009KT 16/11 A2986 RMK A01 T01550106  RH  075%=      5-min Rain = 0
KSDS 240915Z 15009KT 16/11 A2986 RMK A01 T01550106  RH  075%=      5-min Rain = 0
KSDS 240920Z 15008KT 15/11 A2986 RMK A01 T01540106  RH  075%=      5-min Rain = 0
KSDS 240925Z 16008KT 15/11 A2986 RMK A01 T01520105  RH  076%=      5-min Rain = 0
KSDS 240930Z 16008KT 15/11 A2986 RMK A01 T01510105  RH  077%=      5-min Rain = 0
KSDS 240935Z 16007KT 15/11 A2986 RMK A01 T01500105  RH  077%=      5-min Rain = 0
KSDS 240940Z 16007KT 15/11 A2986 RMK A01 T01490105  RH  077%=      5-min Rain = 0
KSDS 240945Z 16007KT 15/10 A2986 RMK A01 T01480104  RH  078%=      5-min Rain = 0
KSDS 240950Z 16007KT 15/10 A2986 RMK A01 T01460104  RH  078%=      5-min Rain = 0
KSDS 240955Z 16007KT 14/10 A2986 RMK A01 T01440104  RH  079%=      5-min Rain = 0
KSDS 241000Z 15007KT 14/10 A2986 RMK A01 T01420103  RH  080%=      5-min Rain = 0
KSDS 241005Z 15007KT 14/10 A2986 RMK A01 T01400103  RH  081%=      5-min Rain = 0
KSDS 241010Z 15007KT 14/10 A2986 RMK A01 T01380102  RH  082%=      5-min Rain = 0
KSDS 241015Z 15007KT 14/10 A2987 RMK A01 T01370102  RH  082%=      5-min Rain = 0
KSDS 241020Z 15007KT 14/10 A2987 RMK A01 T01350102  RH  083%=      5-min Rain = 0
KSDS 241025Z 15007KT 13/10 A2987 RMK A01 T01340101  RH  083%=      5-min Rain = 0
KSDS 241030Z 15006KT 13/10 A2987 RMK A01 T01320101  RH  084%=      5-min Rain = 0
KSDS 241035Z 15006KT 13/10 A2987 RMK A01 T01310100  RH  084%=      5-min Rain = 0
KSDS 241040Z 14007KT 13/10 A2987 RMK A01 T01290099  RH  085%=      5-min Rain = 0
KSDS 241045Z 14008KT 13/10 A2987 RMK A01 T01280100  RH  086%=      5-min Rain = 0
KSDS 241050Z 14007KT 13/10 A2987 RMK A01 T01280101  RH  086%=      5-min Rain = 0
KSDS 241055Z 14007KT 13/10 A2987 RMK A01 T01270100  RH  086%=      5-min Rain = 0
KSDS 241100Z 15007KT 13/10 A2987 RMK A01 T01250099  RH  087%=      5-min Rain = 0
KSDS 241105Z 15007KT 12/10 A2987 RMK A01 T01240099  RH  087%=      5-min Rain = 0
KSDS 241110Z 15006KT 12/10 A2987 RMK A01 T01220098  RH  088%=      5-min Rain = 0
KSDS 241115Z 15006KT 12/10 A2987 RMK A01 T01220098  RH  088%=      5-min Rain = 0
KSDS 241120Z 15006KT 12/10 A2987 RMK A01 T01210097  RH  088%=      5-min Rain = 0
KSDS 241125Z 15007KT 12/10 A2987 RMK A01 T01190097  RH  089%=      5-min Rain = 0
KSDS 241130Z 15007KT 12/10 A2987 RMK A01 T01180096  RH  089%=      5-min Rain = 0
KSDS 241135Z 15007KT 12/09 A2987 RMK A01 T01160094  RH  089%=      5-min Rain = 0
KSDS 241140Z 15007KT 11/09 A2986 RMK A01 T01140093  RH  090%=      5-min Rain = 0
KSDS 241145Z 15007KT 11/09 A2986 RMK A01 T01130093  RH  090%=      5-min Rain = 0
KSDS 241150Z 15007KT 11/09 A2986 RMK A01 T01120093  RH  090%=      5-min Rain = 0
KSDS 241155Z 15007KT 11/09 A2986 RMK A01 T01120093  RH  091%=      5-min Rain = 0
KSDS 241200Z 15007KT 11/10 A2986 RMK A01 T01140095  RH  091%=      5-min Rain = 0
KSDS 241205Z 16008KT 12/10 A2986 RMK A01 T01190100  RH  091%=      5-min Rain = 0
KSDS 241210Z 16008KT 12/10 A2986 RMK A01 T01230104  RH  091%=      5-min Rain = 0
KSDS 241215Z 16008KT 13/11 A2986 RMK A01 T01270106  RH  090%=      5-min Rain = 0
KSDS 241220Z 17007KT 13/11 A2986 RMK A01 T01320108  RH  088%=      5-min Rain = 0
KSDS 241225Z 16007KT 14/11 A2987 RMK A01 T01360109  RH  087%=      5-min Rain = 0
KSDS 241230Z 16007KT 14/11 A2987 RMK A01 T01390110  RH  085%=      5-min Rain = 0
KSDS 241235Z 17006KT 14/11 A2987 RMK A01 T01430111  RH  084%=      5-min Rain = 0
KSDS 241240Z 16006KT 15/11 A2987 RMK A01 T01470112  RH  082%=      5-min Rain = 0
KSDS 241245Z 16006KT 15/11 A2987 RMK A01 T01520113  RH  080%=      5-min Rain = 0
KSDS 241250Z 17007G12KT 16/11 A2987 RMK A01 T01570113  RH  078%=      5-min Rain = 0
KSDS 241255Z 17008KT 16/11 A2987 RMK A01 T01620112  RH  075%=      5-min Rain = 0
KSDS 241300Z 17009KT 17/11 A2988 RMK A01 T01670113  RH  073%=      5-min Rain = 0
KSDS 241305Z 17009KT 17/11 A2988 RMK A01 T01720113  RH  071%=      5-min Rain = 0
KSDS 241310Z 18009KT 18/11 A2988 RMK A01 T01760112  RH  069%=      5-min Rain = 0
KSDS 241315Z 19009KT 18/11 A2988 RMK A01 T01780111  RH  067%=      5-min Rain = 0
KSDS 241320Z 19009KT 18/11 A2988 RMK A01 T01810111  RH  066%=      5-min Rain = 0
KSDS 241325Z 19009KT 19/11 A2988 RMK A01 T01850113  RH  065%=      5-min Rain = 0
KSDS 241330Z 19011KT 19/11 A2987 RMK A01 T01880113  RH  064%=      5-min Rain = 0
KSDS 241335Z 19011KT 19/11 A2987 RMK A01 T01900113  RH  063%=      5-min Rain = 0
KSDS 241340Z 19012KT 19/11 A2987 RMK A01 T01930113  RH  062%=      5-min Rain = 0
KSDS 241345Z 19010G15KT 20/11 A2987 RMK A01 T01960114  RH  061%=      5-min Rain = 0
KSDS 241350Z 19011KT 20/11 A2987 RMK A01 T01970113  RH  060%=      5-min Rain = 0
KSDS 241355Z 19011KT 20/11 A2987 RMK A01 T01990114  RH  060%=      5-min Rain = 0
KSDS 241400Z 18012KT 20/12 A2987 RMK A01 T02030115  RH  059%=      5-min Rain = 0
KSDS 241405Z 19011KT 21/12 A2987 RMK A01 T02070117  RH  058%=      5-min Rain = 0
KSDS 241410Z 18013G19KT 21/12 A2987 RMK A01 T02050117  RH  059%=      5-min Rain = 0
KSDS 241415Z 19013G18KT 21/12 A2987 RMK A01 T02080118  RH  059%=      5-min Rain = 0
KSDS 241420Z 20013G18KT 21/12 A2987 RMK A01 T02090118  RH  058%=      5-min Rain = 0
KSDS 241425Z 20012KT 21/12 A2987 RMK A01 T02130120  RH  057%=      5-min Rain = 0
KSDS 241430Z 20011KT 22/12 A2987 RMK A01 T02150120  RH  057%=      5-min Rain = 0
KSDS 241435Z 21011KT 22/12 A2987 RMK A01 T02170121  RH  056%=      5-min Rain = 0
KSDS 241440Z 21010G15KT 22/12 A2987 RMK A01 T02220123  RH  055%=      5-min Rain = 0
KSDS 241445Z 21010KT 22/12 A2987 RMK A01 T02240122  RH  055%=      5-min Rain = 0
KSDS 241450Z 19011KT 23/12 A2987 RMK A01 T02270124  RH  054%=      5-min Rain = 0
KSDS 241455Z 21010KT 23/12 A2987 RMK A01 T02260123  RH  054%=      5-min Rain = 0
KSDS 241500Z 20009KT 23/12 A2987 RMK A01 T02290123  RH  053%=      5-min Rain = 0
KSDS 241505Z 19009KT 23/12 A2987 RMK A01 T02320124  RH  053%=      5-min Rain = 0
KSDS 241510Z 20009KT 23/12 A2987 RMK A01 T02340124  RH  052%=      5-min Rain = 0
KSDS 241515Z 19008KT 24/13 A2987 RMK A01 T02350125  RH  052%=      5-min Rain = 0
KSDS 241520Z 17008G13KT 24/12 A2987 RMK A01 T02380124  RH  051%=      5-min Rain = 0
KSDS 241525Z 21008KT 24/13 A2987 RMK A01 T02390125  RH  051%=      5-min Rain = 0
KSDS 241530Z 20008KT 24/13 A2987 RMK A01 T02410125  RH  050%=      5-min Rain = 0
KSDS 241535Z 20009KT 25/13 A2987 RMK A01 T02470125  RH  049%=      5-min Rain = 0
KSDS 241540Z 20008KT 25/12 A2987 RMK A01 T02470123  RH  048%=      5-min Rain = 0
KSDS 241545Z 20007KT 25/13 A2986 RMK A01 T02490125  RH  048%=      5-min Rain = 0
KSDS 241550Z 22006KT 25/12 A2986 RMK A01 T02500122  RH  047%=      5-min Rain = 0
KSDS 241555Z 22007KT 25/12 A2986 RMK A01 T02520120  RH  046%=      5-min Rain = 0
KSDS 241600Z 19007G12KT 26/12 A2986 RMK A01 T02550120  RH  045%=      5-min Rain = 0
KSDS 241605Z 20009KT 25/12 A2986 RMK A01 T02540118  RH  044%=      5-min Rain = 0
KSDS 241610Z 22006KT 25/12 A2986 RMK A01 T02540117  RH  044%=      5-min Rain = 0
KSDS 241615Z 20008KT 26/12 A2986 RMK A01 T02600119  RH  043%=      5-min Rain = 0
KSDS 241620Z 21007KT 26/11 A2986 RMK A01 T02590114  RH  042%=      5-min Rain = 0
KSDS 241625Z 23006KT 26/11 A2985 RMK A01 T02610113  RH  041%=      5-min Rain = 0
KSDS 241630Z 20007KT 26/12 A2985 RMK A01 T02630115  RH  041%=      5-min Rain = 0
KSDS 241635Z 24005KT 27/11 A2985 RMK A01 T02670109  RH  039%=      5-min Rain = 0
KSDS 241640Z 25007KT 27/10 A2985 RMK A01 T02680104  RH  037%=      5-min Rain = 0
KSDS 241645Z 27006KT 27/11 A2985 RMK A01 T02710110  RH  038%=      5-min Rain = 0
KSDS 241650Z 24005G11KT 27/11 A2985 RMK A01 T02700105  RH  037%=      5-min Rain = 0
KSDS 241655Z 26004KT 27/10 A2985 RMK A01 T02720103  RH  036%=      5-min Rain = 0
KSDS 241700Z 20004G11KT 27/11 A2985 RMK A01 T02740105  RH  036%=      5-min Rain = 0
KSDS 241705Z 23005G11KT 28/10 A2985 RMK A01 T02780101  RH  034%=      5-min Rain = 0
KSDS 241710Z 24005KT 28/09 A2985 RMK A01 T02810092  RH  032%=      5-min Rain = 0
KSDS 241715Z 27004KT 28/09 A2985 RMK A01 T02810092  RH  032%=      5-min Rain = 0
KSDS 241720Z 25004KT 28/09 A2985 RMK A01 T02830093  RH  031%=      5-min Rain = 0
KSDS 241725Z 25005KT 29/09 A2985 RMK A01 T02870090  RH  030%=      5-min Rain = 0
KSDS 241730Z 20004G10KT 29/09 A2984 RMK A01 T02920087  RH  029%=      5-min Rain = 0
KSDS 241735Z 21002KT 29/09 A2984 RMK A01 T02880086  RH  029%=      5-min Rain = 0
KSDS 241740Z 23006KT 30/09 A2984 RMK A01 T02960091  RH  029%=      5-min Rain = 0
KSDS 241745Z 22004G10KT 30/09 A2984 RMK A01 T03010089  RH  028%=      5-min Rain = 0
KSDS 241750Z 23004KT 30/08 A2983 RMK A01 T02960084  RH  027%=      5-min Rain = 0
KSDS 241755Z 20007KT 31/08 A2983 RMK A01 T03050075  RH  024%=      5-min Rain = 0
KSDS 241800Z 22003G8KT 30/08 A2983 RMK A01 T03030075  RH  025%=      5-min Rain = 0
KSDS 241805Z 21006KT 31/07 A2983 RMK A01 T03080072  RH  023%=      5-min Rain = 0
KSDS 241810Z 24006KT 31/07 A2983 RMK A01 T03090065  RH  022%=      5-min Rain = 0
KSDS 241815Z 18005KT 31/07 A2983 RMK A01 T03060066  RH  023%=      5-min Rain = 0
KSDS 241820Z 19002G7KT 31/07 A2982 RMK A01 T03050067  RH  023%=      5-min Rain = 0
KSDS 241825Z 20006G11KT 31/05 A2982 RMK A01 T03140054  RH  020%=      5-min Rain = 0
KSDS 241830Z 19008KT 32/03 A2982 RMK A01 T03180030  RH  016%=      5-min Rain = 0
KSDS 241835Z 17007KT 32/02 A2982 RMK A01 T03200017  RH  015%=      5-min Rain = 0
KSDS 241840Z 15006KT 32/04 A2981 RMK A01 T03170037  RH  017%=      5-min Rain = 0
KSDS 241845Z 14004KT 32/04 A2981 RMK A01 T03150039  RH  018%=      5-min Rain = 0
KSDS 241850Z 20008G13KT 32/03 A2981 RMK A01 T03230027  RH  016%=      5-min Rain = 0
KSDS 241855Z 19005KT 32/01 A2981 RMK A01 T03200008  RH  014%=      5-min Rain = 0
KSDS 241900Z 23008G13KT 32/M01 A2981 RMK A01 T03241005  RH  012%=      5-min Rain = 0
KSDS 241905Z 21010KT 33/00 A2981 RMK A01 T03250001  RH  013%=      5-min Rain = 0
KSDS 241910Z 22005KT 33/M01 A298 RMK A01 T03251012  RH  012%=      5-min Rain = 0
KSDS 241915Z 16005G10KT 32/M01 A298 RMK A01 T03231007  RH  012%=      5-min Rain = 0
KSDS 241920Z 19003G10KT 32/M02 A298 RMK A01 T03221017  RH  011%=      5-min Rain = 0
KSDS 241925Z 26005G10KT 32/M02 A298 RMK A01 T03211019  RH  011%=      5-min Rain = 0
KSDS 241930Z 27006KT 33/M01 A2979 RMK A01 T03301014  RH  011%=      5-min Rain = 0
KSDS 241935Z 29007KT 32/M02 A2979 RMK A01 T03241019  RH  011%=      5-min Rain = 0
KSDS 241940Z 23009G15KT 32/M02 A2979 RMK A01 T03241018  RH  011%=      5-min Rain = 0
KSDS 241945Z 20007G13KT 32/M01 A2979 RMK A01 T03211014  RH  012%=      5-min Rain = 0
KSDS 241950Z 21003KT 32/M01 A2978 RMK A01 T03241011  RH  012%=      5-min Rain = 0
KSDS 241955Z 18008G14KT 33/M01 A2978 RMK A01 T03291009  RH  012%=      5-min Rain = 0
KSDS 242000Z 21007KT 32/M02 A2978 RMK A01 T03221019  RH  011%=      5-min Rain = 0
KSDS 242005Z 24007G14KT 32/M01 A2978 RMK A01 T03231012  RH  012%=      5-min Rain = 0
KSDS 242010Z 24007G12KT 32/M01 A2978 RMK A01 T03191011  RH  012%=      5-min Rain = 0
KSDS 242015Z 21007KT 32/M01 A2977 RMK A01 T03221005  RH  012%=      5-min Rain = 0
KSDS 242020Z 18009KT 32/M01 A2977 RMK A01 T03211010  RH  012%=      5-min Rain = 0
KSDS 242025Z 12006G11KT 32/M01 A2977 RMK A01 T03231009  RH  012%=      5-min Rain = 0
KSDS 242030Z 16005G11KT 32/M01 A2977 RMK A01 T03231012  RH  012%=      5-min Rain = 0
KSDS 242035Z 22004KT 32/M01 A2976 RMK A01 T03191012  RH  012%=      5-min Rain = 0
KSDS 242040Z 24003KT 32/M01 A2976 RMK A01 T03231011  RH  012%=      5-min Rain = 0
KSDS 242045Z 22008G14KT 32/M02 A2976 RMK A01 T03241020  RH  011%=      5-min Rain = 0
KSDS 242050Z 21007G13KT 32/M02 A2976 RMK A01 T03171016  RH  012%=      5-min Rain = 0
KSDS 242055Z 21008KT 32/M01 A2975 RMK A01 T03151014  RH  012%=      5-min Rain = 0
KSDS 242100Z 21006KT 31/M01 A2975 RMK A01 T03141012  RH  012%=      5-min Rain = 0
KSDS 242105Z 17007KT 31/00 A2975 RMK A01 T03120004  RH  014%=      5-min Rain = 0
KSDS 242110Z 17006KT 31/01 A2974 RMK A01 T03120005  RH  014%=      5-min Rain = 0
KSDS 242115Z 19006KT 31/M00 A2974 RMK A01 T03121003  RH  013%=      5-min Rain = 0
KSDS 242120Z 20005KT 31/M00 A2973 RMK A01 T03111004  RH  013%=      5-min Rain = 0
KSDS 242125Z 22006KT 31/M01 A2973 RMK A01 T03091010  RH  013%=      5-min Rain = 0
KSDS 242130Z 23005KT 31/M01 A2973 RMK A01 T03091007  RH  013%=      5-min Rain = 0
KSDS 242135Z 21006G11KT 31/M00 A2972 RMK A01 T03091001  RH  014%=      5-min Rain = 0
KSDS 242140Z 17008KT 31/00 A2972 RMK A01 T03070001  RH  014%=      5-min Rain = 0
KSDS 242145Z 17009KT 31/00 A2973 RMK A01 T03060003  RH  014%=      5-min Rain = 0
KSDS 242150Z 17015G49KT 30/M03 A2973 RMK A01 T03011031  RH  012%=      5-min Rain = 0
KSDS 242155Z 14007G19KT 30/M06 A2971 RMK A01 T02991057  RH  010%=      5-min Rain = 0
KSDS 242200Z 22007G12KT 31/M04 A2971 RMK A01 T03131044  RH  010%=      5-min Rain = 0
KSDS 242205Z 21007KT 32/M04 A2971 RMK A01 T03201043  RH  009%=      5-min Rain = 0
KSDS 242210Z 16006G12KT 32/M04 A2971 RMK A01 T03161043  RH  010%=      5-min Rain = 0
KSDS 242215Z 15013G18KT 32/00 A297 RMK A01 T03210004  RH  013%=      5-min Rain = 0
KSDS 242220Z 15012G17KT 33/01 A297 RMK A01 T03250013  RH  014%=      5-min Rain = 0
KSDS 242225Z 14010KT 33/01 A2969 RMK A01 T03270008  RH  013%=      5-min Rain = 0
KSDS 242230Z 14009KT 33/02 A2969 RMK A01 T03320015  RH  014%=      5-min Rain = 0
KSDS 242235Z 15010G16KT 33/02 A2969 RMK A01 T03310016  RH  014%=      5-min Rain = 0
KSDS 242240Z 14013KT 32/01 A2969 RMK A01 T03160005  RH  014%=      5-min Rain = 0
KSDS 242245Z 14012KT 32/00 A2968 RMK A01 T03180003  RH  013%=      5-min Rain = 0
KSDS 242250Z 13011KT 31/M00 A2968 RMK A01 T03141004  RH  013%=      5-min Rain = 0
KSDS 242255Z 13009KT 31/M00 A2968 RMK A01 T03131003  RH  013%=      5-min Rain = 0
KSDS 242300Z 12008KT 33/00 A2968 RMK A01 T032500-0  RH  013%=      5-min Rain = 0
KSDS 242305Z 13009KT 33/00 A2968 RMK A01 T03260003  RH  013%=      5-min Rain = 0
KSDS 242310Z 13010KT 32/00 A2968 RMK A01 T03210003  RH  013%=      5-min Rain = 0
KSDS 242315Z 13012G17KT 32/00 A2968 RMK A01 T03200001  RH  013%=      5-min Rain = 0
KSDS 242320Z 13012G17KT 32/01 A2968 RMK A01 T03170006  RH  014%=      5-min Rain = 0
KSDS 242325Z 12011KT 31/01 A2968 RMK A01 T03070009  RH  015%=      5-min Rain = 0
KSDS 242330Z 12010G16KT 31/01 A2967 RMK A01 T03070010  RH  015%=      5-min Rain = 0
KSDS 242335Z 13010KT 31/01 A2967 RMK A01 T03080008  RH  015%=      5-min Rain = 0
KSDS 242340Z 13011KT 31/01 A2967 RMK A01 T03070005  RH  015%=      5-min Rain = 0
KSDS 242345Z 12009KT 31/01 A2966 RMK A01 T03110005  RH  014%=      5-min Rain = 0
KSDS 242350Z 11010KT 31/00 A2967 RMK A01 T03090003  RH  014%=      5-min Rain = 0
KSDS 242355Z 10011KT 31/00 A2967 RMK A01 T03060001  RH  014%=      5-min Rain = 0
KSDS 250000Z 11009KT 30/00 A2968 RMK A01 T03040001  RH  014%=      5-min Rain = 0
KSDS 250005Z 11009KT 30/M00 A2968 RMK A01 T03021002  RH  014%=      5-min Rain = 0
KSDS 250010Z 12008KT 30/M00 A2968 RMK A01 T03001001  RH  015%=      5-min Rain = 0
KSDS 250015Z 11009KT 30/M00 A2968 RMK A01 T02981001  RH  015%=      5-min Rain = 0
KSDS 250020Z 10009KT 30/00 A2968 RMK A01 T02970001  RH  015%=      5-min Rain = 0
KSDS 250025Z 09011KT 29/02 A2968 RMK A01 T02910022  RH  018%=      5-min Rain = 0
KSDS 250030Z 09010KT 29/02 A2968 RMK A01 T02880021  RH  018%=      5-min Rain = 0
KSDS 250035Z 07009G14KT 28/03 A2968 RMK A01 T02840028  RH  020%=      5-min Rain = 0
KSDS 250040Z 07009KT 28/04 A2968 RMK A01 T02770036  RH  022%=      5-min Rain = 0
KSDS 250045Z 08009G14KT 27/04 A2968 RMK A01 T02720039  RH  023%=      5-min Rain = 0
KSDS 250050Z 10011G17KT 27/05 A2968 RMK A01 T02650046  RH  025%=      5-min Rain = 0
KSDS 250055Z 09009G17KT 25/05 A2969 RMK A01 T02480048  RH  028%=      5-min Rain = 0
KSDS 250100Z 09007KT 24/05 A2969 RMK A01 T02420052  RH  030%=      5-min Rain = 0
KSDS 250105Z 08008G13KT 24/05 A2969 RMK A01 T02360053  RH  031%=      5-min Rain = 0
KSDS 250110Z 09006KT 24/06 A2969 RMK A01 T02350056  RH  032%=      5-min Rain = 0
KSDS 250115Z 11008KT 23/06 A2969 RMK A01 T02340056  RH  032%=      5-min Rain = 0
KSDS 250120Z 11010KT 23/05 A297 RMK A01 T02340054  RH  032%=      5-min Rain = 0
KSDS 250125Z 11009G14KT 23/06 A297 RMK A01 T02340055  RH  032%=      5-min Rain = 0
KSDS 250130Z 11009KT 23/05 A2971 RMK A01 T02330053  RH  032%=      5-min Rain = 0
KSDS 250135Z 10009KT 23/05 A2972 RMK A01 T02330053  RH  032%=      5-min Rain = 0
KSDS 250140Z 11011KT 23/05 A2973 RMK A01 T02330053  RH  032%=      5-min Rain = 0
KSDS 250145Z 10011G16KT 23/05 A2973 RMK A01 T02330049  RH  031%=      5-min Rain = 0
KSDS 250150Z 10014KT 23/05 A2973 RMK A01 T02330047  RH  031%=      5-min Rain = 0
KSDS 250155Z 10011G17KT 23/05 A2973 RMK A01 T02290049  RH  032%=      5-min Rain = 0
KSDS 250200Z 11010KT 22/05 A2973 RMK A01 T02230053  RH  034%=      5-min Rain = 0
KSDS 250205Z 10011KT 22/06 A2973 RMK A01 T02200055  RH  035%=      5-min Rain = 0
KSDS 250210Z 11010KT 22/06 A2973 RMK A01 T02160058  RH  037%=      5-min Rain = 0
KSDS 250215Z 10011KT 21/06 A2973 RMK A01 T02120061  RH  038%=      5-min Rain = 0
KSDS 250220Z 10010KT 21/06 A2974 RMK A01 T02100063  RH  039%=      5-min Rain = 0
KSDS 250225Z 10011G16KT 21/06 A2974 RMK A01 T02080064  RH  040%=      5-min Rain = 0
KSDS 250230Z 10011G16KT 21/07 A2974 RMK A01 T02070066  RH  041%=      5-min Rain = 0
KSDS 250235Z 10012KT 21/07 A2974 RMK A01 T02050068  RH  042%=      5-min Rain = 0
KSDS 250240Z 09011G16KT 20/07 A2974 RMK A01 T02030069  RH  043%=      5-min Rain = 0
KSDS 250245Z 09010KT 20/07 A2974 RMK A01 T02020068  RH  043%=      5-min Rain = 0
KSDS 250250Z 09012KT 20/07 A2974 RMK A01 T02010069  RH  043%=      5-min Rain = 0
KSDS 250255Z 10009G15KT 20/07 A2974 RMK A01 T01980073  RH  045%=      5-min Rain = 0
KSDS 250300Z 10009KT 20/08 A2973 RMK A01 T01950076  RH  047%=      5-min Rain = 0
KSDS 250305Z 10011KT 19/08 A2972 RMK A01 T01910084  RH  051%=      5-min Rain = 0
KSDS 250310Z 10009KT 19/09 A2972 RMK A01 T01860088  RH  055%=      5-min Rain = 0
KSDS 250315Z 10008KT 18/09 A2971 RMK A01 T01820089  RH  056%=      5-min Rain = 0
KSDS 250320Z 10007KT 18/09 A297 RMK A01 T01800089  RH  057%=      5-min Rain = 0
KSDS 250325Z 10008KT 18/09 A2971 RMK A01 T01770088  RH  058%=      5-min Rain = 0
KSDS 250330Z 10008KT 18/09 A2971 RMK A01 T01750088  RH  058%=      5-min Rain = 0
KSDS 250335Z 11008KT 17/09 A2971 RMK A01 T01740087  RH  059%=      5-min Rain = 0
KSDS 250340Z 12008KT 17/09 A2971 RMK A01 T01710087  RH  059%=      5-min Rain = 0
KSDS 250345Z 12008KT 17/09 A2971 RMK A01 T01710088  RH  060%=      5-min Rain = 0
KSDS 250350Z 12009KT 17/09 A2971 RMK A01 T01720088  RH  060%=      5-min Rain = 0
KSDS 250355Z 12009KT 17/09 A2971 RMK A01 T01700089  RH  060%=      5-min Rain = 0
KSDS 250400Z 12008KT 17/09 A2971 RMK A01 T01680089  RH  061%=      5-min Rain = 0
KSDS 250405Z 12008KT 17/09 A2971 RMK A01 T01670088  RH  062%=      5-min Rain = 0
KSDS 250410Z 11007KT 17/09 A2972 RMK A01 T01650088  RH  062%=      5-min Rain = 0
KSDS 250415Z 10007KT 16/09 A2972 RMK A01 T01630087  RH  063%=      5-min Rain = 0
KSDS 250420Z 11007KT 16/09 A2973 RMK A01 T01610087  RH  063%=      5-min Rain = 0
KSDS 250425Z 12008KT 16/09 A2974 RMK A01 T01600088  RH  064%=      5-min Rain = 0
KSDS 250430Z 11009KT 16/09 A2976 RMK A01 T01590088  RH  065%=      5-min Rain = 0
KSDS 250435Z 11009KT 16/09 A2977 RMK A01 T01600089  RH  065%=      5-min Rain = 0
KSDS 250440Z 11010G15KT 16/09 A2977 RMK A01 T01620092  RH  065%=      5-min Rain = 0
KSDS 250445Z 12012KT 17/09 A2978 RMK A01 T01670094  RH  064%=      5-min Rain = 0
KSDS 250450Z 12011KT 17/09 A2979 RMK A01 T01670094  RH  064%=      5-min Rain = 0
KSDS 250455Z 11010G15KT 17/09 A298 RMK A01 T01680093  RH  063%=      5-min Rain = 0

Page generated in 0.0544 seconds.